createdAt,value
2023-01-25T00:02:59.174Z,13.85
2023-01-25T00:09:01.106Z,16.70
2023-01-25T00:15:02.924Z,14.43
2023-01-25T00:21:22.090Z,14.00
2023-01-25T00:27:23.916Z,14.00
2023-01-25T00:33:37.630Z,14.35
2023-01-25T00:39:39.617Z,14.48
2023-01-25T00:45:41.442Z,13.82
2023-01-25T00:51:43.604Z,14.93
2023-01-25T00:57:45.389Z,14.63
2023-01-25T01:03:47.284Z,13.82
2023-01-25T01:09:49.183Z,13.32
2023-01-25T01:15:51.236Z,13.45
2023-01-25T01:21:53.122Z,15.50
2023-01-25T01:27:54.888Z,13.68
2023-01-25T01:33:58.458Z,14.82
2023-01-25T01:40:00.345Z,15.43
2023-01-25T01:46:04.099Z,16.05
2023-01-25T01:52:12.991Z,16.60
2023-01-25T01:58:14.957Z,15.55
2023-01-25T02:04:19.925Z,16.15
2023-01-25T02:10:23.137Z,14.07
2023-01-25T02:16:27.605Z,15.82
2023-01-25T02:23:06.847Z,14.85
2023-01-25T02:29:10.248Z,16.52
2023-01-25T02:35:23.506Z,16.75
2023-01-25T02:41:37.746Z,13.85
2023-01-25T02:47:39.572Z,15.52
2023-01-25T02:53:41.614Z,16.08
2023-01-25T02:59:43.535Z,16.27
2023-01-25T03:05:45.364Z,19.02
2023-01-25T03:11:47.305Z,19.27
2023-01-25T03:17:49.189Z,19.15
2023-01-25T03:24:01.796Z,16.98
2023-01-25T03:30:04.191Z,19.60
2023-01-25T03:36:06.847Z,17.92
2023-01-25T03:42:08.949Z,22.75
2023-01-25T03:48:10.847Z,26.33
2023-01-25T03:54:12.737Z,24.85
2023-01-25T04:00:15.397Z,24.83
2023-01-25T04:06:17.343Z,24.42
2023-01-25T04:12:19.272Z,23.35
2023-01-25T04:18:22.013Z,23.33
2023-01-25T04:24:23.849Z,29.58
2023-01-25T04:30:25.882Z,25.50
2023-01-25T04:36:27.787Z,30.75
2023-01-25T04:42:29.838Z,28.58
2023-01-25T04:48:32.733Z,34.90
2023-01-25T04:54:34.540Z,26.42
2023-01-25T05:00:36.611Z,30.25
2023-01-25T05:06:38.511Z,31.80
2023-01-25T05:12:40.371Z,35.63
2023-01-25T05:18:48.390Z,33.13
2023-01-25T05:24:51.018Z,37.58
2023-01-25T05:30:53.139Z,34.33
2023-01-25T05:36:55.104Z,38.42
2023-01-25T05:42:58.763Z,34.97
2023-01-25T05:49:00.736Z,38.90
2023-01-25T05:55:02.563Z,37.78
2023-01-25T06:01:07.890Z,40.78
2023-01-25T06:07:09.788Z,40.83
2023-01-25T06:13:11.799Z,36.08
2023-01-25T06:19:14.367Z,34.97
2023-01-25T06:25:16.327Z,31.23
2023-01-25T06:31:18.759Z,35.97
2023-01-25T06:37:23.063Z,31.05
2023-01-25T06:43:24.967Z,27.08
2023-01-25T06:49:26.787Z,25.23
2023-01-25T06:55:28.617Z,27.60
2023-01-25T07:01:30.741Z,22.95
2023-01-25T07:07:32.612Z,23.13
2023-01-25T07:13:35.081Z,20.83
2023-01-25T07:19:36.872Z,25.63
2023-01-25T07:25:44.792Z,34.65
2023-01-25T07:31:46.649Z,22.20
2023-01-25T07:37:48.381Z,26.75
2023-01-25T07:43:50.203Z,25.92
2023-01-25T07:49:51.938Z,27.30
2023-01-25T07:55:53.861Z,22.80
2023-01-25T08:01:56.056Z,19.02
2023-01-25T08:07:58.076Z,23.85
2023-01-25T08:14:02.052Z,20.27
2023-01-25T08:20:05.034Z,22.33
2023-01-25T08:26:09.199Z,21.67
2023-01-25T08:32:11.263Z,25.13
2023-01-25T08:38:13.039Z,23.25
2023-01-25T08:44:15.361Z,26.13
2023-01-25T08:50:17.614Z,22.08
2023-01-25T08:56:19.535Z,32.75
2023-01-25T09:02:21.810Z,30.02
2023-01-25T09:08:23.864Z,31.55
2023-01-25T09:14:25.797Z,33.35
2023-01-25T09:20:28.311Z,32.58
2023-01-25T09:26:31.537Z,34.90
2023-01-25T09:32:34.251Z,24.73
2023-01-25T09:38:36.714Z,25.42
2023-01-25T09:44:41.358Z,26.85
2023-01-25T09:57:04.815Z,30.85
2023-01-25T10:03:25.768Z,26.27
2023-01-25T10:09:33.619Z,28.80
2023-01-25T10:15:44.115Z,34.15
2023-01-25T10:21:49.821Z,31.30
2023-01-25T10:28:19.796Z,28.10
2023-01-25T10:34:34.145Z,29.20
2023-01-25T10:40:44.457Z,28.92
2023-01-25T10:46:52.250Z,30.13
2023-01-25T10:52:58.925Z,28.90
2023-01-25T10:59:28.503Z,29.73
2023-01-25T11:05:41.933Z,32.63
2023-01-25T11:11:43.960Z,31.02
2023-01-25T11:17:45.933Z,35.30
2023-01-25T11:24:09.346Z,30.30
2023-01-25T11:30:21.918Z,28.45
2023-01-25T11:36:32.780Z,31.30
2023-01-25T11:42:42.859Z,24.92
2023-01-25T11:49:26.155Z,25.48
2023-01-25T11:55:48.877Z,30.90
2023-01-25T12:02:08.826Z,33.47
2023-01-25T12:08:39.980Z,30.35
2023-01-25T12:15:12.253Z,29.55
2023-01-25T12:21:32.770Z,36.72
2023-01-25T12:27:57.836Z,39.17
2023-01-25T12:40:22.563Z,36.20
2023-01-25T12:46:30.884Z,36.35
2023-01-25T12:52:41.211Z,40.17
2023-01-25T12:58:57.028Z,41.85
2023-01-25T13:05:30.095Z,42.97
2023-01-25T13:11:43.714Z,44.67
2023-01-25T13:17:45.685Z,40.85
2023-01-25T13:24:12.529Z,37.60
2023-01-25T13:30:34.800Z,47.80
2023-01-25T13:36:45.686Z,38.08
2023-01-25T13:43:03.856Z,58.33
2023-01-25T13:49:14.897Z,34.83
2023-01-25T13:55:20.301Z,41.25
2023-01-25T14:01:23.841Z,36.03
2023-01-25T14:07:34.053Z,30.70
2023-01-25T14:13:35.850Z,41.72
2023-01-25T14:19:40.485Z,30.60
2023-01-25T14:25:42.295Z,30.83
2023-01-25T14:31:46.338Z,28.50
2023-01-25T14:37:48.226Z,34.53
2023-01-25T14:43:53.829Z,35.40
2023-01-25T14:49:55.575Z,41.30
2023-01-25T14:55:58.734Z,35.90
2023-01-25T15:02:23.464Z,34.25
2023-01-25T15:08:35.842Z,30.45
2023-01-25T15:14:52.238Z,28.15
2023-01-25T15:20:54.110Z,38.10
2023-01-25T15:26:56.424Z,29.98
2023-01-25T15:33:00.691Z,29.00
2023-01-25T15:39:02.621Z,28.52
2023-01-25T15:45:06.841Z,30.42
2023-01-25T15:51:10.713Z,32.38
2023-01-25T15:57:34.601Z,30.30
2023-01-25T16:03:36.475Z,34.42
2023-01-25T16:09:38.211Z,32.53
2023-01-25T16:15:40.909Z,33.38
2023-01-25T16:21:43.259Z,30.15
2023-01-25T16:27:45.488Z,34.53
2023-01-25T16:33:47.391Z,38.00
2023-01-25T16:39:50.243Z,34.53
2023-01-25T16:45:57.760Z,37.38
2023-01-25T16:52:02.763Z,38.80
2023-01-25T16:58:04.617Z,42.58
2023-01-25T17:04:07.352Z,46.28
2023-01-25T17:10:11.196Z,45.78
2023-01-25T17:16:13.794Z,49.20
2023-01-25T17:22:15.841Z,47.03
2023-01-25T17:28:17.747Z,52.22
2023-01-25T17:34:20.240Z,48.92
2023-01-25T17:40:22.332Z,54.25
2023-01-25T17:46:30.131Z,67.07
2023-01-25T17:52:32.026Z,67.45
2023-01-25T17:58:37.086Z,89.53
2023-01-25T18:04:39.401Z,77.72
2023-01-25T18:10:41.421Z,70.53
2023-01-25T18:16:43.515Z,81.82
2023-01-25T18:22:45.443Z,83.82
2023-01-25T18:28:47.481Z,89.10
2023-01-25T18:34:49.623Z,99.65
2023-01-25T18:40:51.819Z,91.70
2023-01-25T18:46:53.657Z,94.95
2023-01-25T18:52:55.953Z,97.70
2023-01-25T18:58:58.787Z,79.72
2023-01-25T19:05:00.829Z,101.70
2023-01-25T19:11:08.775Z,93.50
2023-01-25T19:17:10.717Z,96.72
2023-01-25T19:23:12.663Z,90.10
2023-01-25T19:29:15.491Z,96.75
2023-01-25T19:35:17.468Z,94.65
2023-01-25T19:41:25.353Z,98.90
2023-01-25T19:47:27.407Z,92.10
2023-01-25T19:53:29.514Z,92.90
2023-01-25T19:59:31.664Z,87.85
2023-01-25T20:05:33.692Z,82.03
2023-01-25T20:11:35.751Z,98.03
2023-01-25T20:17:37.737Z,89.47
2023-01-25T20:23:44.073Z,97.72
2023-01-25T20:29:46.576Z,77.47
2023-01-25T20:35:50.145Z,87.68
2023-01-25T20:41:53.821Z,78.90
2023-01-25T20:47:55.841Z,105.27
2023-01-25T20:53:58.147Z,88.28
2023-01-25T21:00:00.172Z,75.88
2023-01-25T21:06:02.056Z,79.18
2023-01-25T21:12:03.915Z,80.50
2023-01-25T21:18:05.953Z,79.10
2023-01-25T21:24:09.102Z,76.30
2023-01-25T21:30:11.803Z,73.82
2023-01-25T21:36:15.416Z,69.05
2023-01-25T21:42:17.258Z,73.85
2023-01-25T21:48:39.002Z,70.88
2023-01-25T21:54:40.947Z,72.25
2023-01-25T22:00:42.884Z,76.63
2023-01-25T22:06:45.612Z,74.25
2023-01-25T22:12:50.792Z,83.57
2023-01-25T22:18:53.177Z,91.78
2023-01-25T22:24:56.807Z,87.88
2023-01-25T22:30:58.743Z,72.20
2023-01-25T22:37:00.683Z,89.28
2023-01-25T22:43:02.586Z,76.47
2023-01-25T22:49:04.918Z,89.57
2023-01-25T22:55:07.339Z,101.43
2023-01-25T23:01:11.053Z,102.80
2023-01-25T23:07:13.003Z,93.78
2023-01-25T23:13:14.908Z,84.95
2023-01-25T23:19:16.892Z,92.60
2023-01-25T23:25:18.902Z,90.43
2023-01-25T23:31:22.533Z,92.28
2023-01-25T23:37:24.726Z,90.25
2023-01-25T23:43:26.593Z,90.15
2023-01-25T23:49:28.417Z,85.95
2023-01-25T23:55:30.267Z,90.97
